createdAt,value
2018-11-05T00:00:32.827Z,10.01
2018-11-05T00:03:02.466Z,10.06
2018-11-05T00:05:31.844Z,10.17
2018-11-05T00:08:01.409Z,10.18
2018-11-05T00:10:30.787Z,10.18
2018-11-05T00:13:00.354Z,10.11
2018-11-05T00:15:29.865Z,10.16
2018-11-05T00:17:59.511Z,10.16
2018-11-05T00:20:29.179Z,10.20
2018-11-05T00:22:58.808Z,10.14
2018-11-05T00:25:28.252Z,10.15
2018-11-05T00:27:57.621Z,10.26
2018-11-05T00:30:27.029Z,10.19
2018-11-05T00:32:56.343Z,10.12
2018-11-05T00:35:25.805Z,10.19
2018-11-05T00:37:55.128Z,10.23
2018-11-05T00:40:24.458Z,10.25
2018-11-05T00:42:53.954Z,10.20
2018-11-05T00:45:23.371Z,10.25
2018-11-05T00:47:52.706Z,10.23
2018-11-05T00:50:22.174Z,10.28
2018-11-05T00:52:51.661Z,10.27
2018-11-05T00:55:21.222Z,10.28
2018-11-05T00:57:50.577Z,10.23
2018-11-05T01:00:20.196Z,10.24
2018-11-05T01:02:49.718Z,10.09
2018-11-05T01:05:19.193Z,10.15
2018-11-05T01:07:49.700Z,10.21
2018-11-05T01:10:19.061Z,10.21
2018-11-05T01:12:48.630Z,10.06
2018-11-05T01:15:18.345Z,10.14
2018-11-05T01:17:48.542Z,10.21
2018-11-05T01:20:18.073Z,10.23
2018-11-05T01:25:26.325Z,10.09
2018-11-05T01:27:55.677Z,10.16
2018-11-05T01:30:25.171Z,10.09
2018-11-05T01:32:54.597Z,10.16
2018-11-05T01:35:24.031Z,10.20
2018-11-05T01:37:53.424Z,10.23
2018-11-05T01:40:23.036Z,10.22
2018-11-05T01:42:52.400Z,10.12
2018-11-05T01:45:21.879Z,10.08
2018-11-05T01:47:55.349Z,10.16
2018-11-05T01:50:24.869Z,10.17
2018-11-05T01:52:54.283Z,10.20
2018-11-05T01:55:23.729Z,10.04
2018-11-05T01:57:53.101Z,10.19
2018-11-05T02:00:22.534Z,10.25
2018-11-05T02:02:51.919Z,10.26
2018-11-05T02:05:21.512Z,10.19
2018-11-05T02:07:50.896Z,10.25
2018-11-05T02:10:20.594Z,10.26
2018-11-05T02:12:49.946Z,10.26
2018-11-05T02:15:19.582Z,10.35
2018-11-05T02:17:48.991Z,10.25
2018-11-05T02:20:18.359Z,10.27
2018-11-05T02:22:47.752Z,10.22
2018-11-05T02:25:17.139Z,10.21
2018-11-05T02:27:46.572Z,10.15
2018-11-05T02:30:17.279Z,10.18
2018-11-05T02:32:47.181Z,10.13
2018-11-05T02:35:17.431Z,10.22
2018-11-05T02:37:47.525Z,10.26
2018-11-05T02:40:19.755Z,10.18
2018-11-05T02:42:49.584Z,10.27
2018-11-05T02:45:20.201Z,10.25
2018-11-05T02:47:49.695Z,10.27
2018-11-05T02:50:19.270Z,10.23
2018-11-05T02:52:48.791Z,10.27
2018-11-05T02:55:18.384Z,10.18
2018-11-05T02:57:47.940Z,10.31
2018-11-05T03:00:18.643Z,10.25
2018-11-05T03:02:48.991Z,10.37
2018-11-05T03:05:19.664Z,10.31
2018-11-05T03:07:49.889Z,10.38
2018-11-05T03:10:19.514Z,10.35
2018-11-05T03:12:50.126Z,10.40
2018-11-05T03:15:19.874Z,10.26
2018-11-05T03:17:49.381Z,10.20
2018-11-05T03:20:18.868Z,10.37
2018-11-05T03:22:48.346Z,10.27
2018-11-05T03:25:17.953Z,10.24
2018-11-05T03:27:47.462Z,10.34
2018-11-05T03:30:19.338Z,10.29
2018-11-05T03:32:48.827Z,10.27
2018-11-05T03:35:18.262Z,10.21
2018-11-05T03:37:47.858Z,10.19
2018-11-05T03:40:17.474Z,10.21
2018-11-05T03:42:46.975Z,10.23
2018-11-05T03:45:17.140Z,10.24
2018-11-05T03:47:46.597Z,10.23
2018-11-05T03:50:18.583Z,10.23
2018-11-05T03:52:48.365Z,10.24
2018-11-05T03:55:18.350Z,10.13
2018-11-05T03:57:47.816Z,10.16
2018-11-05T04:00:18.284Z,10.27
2018-11-05T04:02:47.814Z,10.24
2018-11-05T04:05:17.357Z,10.17
2018-11-05T04:07:46.809Z,10.18
2018-11-05T04:10:16.338Z,10.24
2018-11-05T04:12:45.912Z,10.35
2018-11-05T04:15:15.282Z,10.28
2018-11-05T04:17:44.735Z,10.45
2018-11-05T04:20:15.030Z,10.54
2018-11-05T04:22:45.805Z,10.48
2018-11-05T04:25:15.238Z,10.48
2018-11-05T04:27:44.757Z,10.51
2018-11-05T04:30:15.113Z,10.45
2018-11-05T04:32:44.638Z,10.31
2018-11-05T04:35:14.471Z,10.39
2018-11-05T04:37:43.771Z,10.40
2018-11-05T04:40:13.236Z,10.46
2018-11-05T04:42:42.681Z,10.36
2018-11-05T04:45:13.367Z,10.45
2018-11-05T04:47:43.469Z,10.30
2018-11-05T04:50:13.729Z,10.35
2018-11-05T04:52:44.258Z,10.40
2018-11-05T04:55:13.791Z,10.45
2018-11-05T04:57:43.225Z,10.39
2018-11-05T05:00:17.547Z,10.46
2018-11-05T05:02:46.996Z,10.33
2018-11-05T05:05:17.049Z,10.35
2018-11-05T05:07:46.548Z,10.39
2018-11-05T05:10:15.951Z,10.39
2018-11-05T05:12:45.326Z,10.31
2018-11-05T05:15:14.789Z,10.35
2018-11-05T05:17:44.373Z,10.30
2018-11-05T05:20:15.172Z,10.37
2018-11-05T05:22:44.912Z,10.36
2018-11-05T05:25:17.440Z,10.49
2018-11-05T05:27:47.040Z,10.50
2018-11-05T05:30:19.150Z,10.53
2018-11-05T05:32:49.326Z,10.45
2018-11-05T05:35:19.786Z,10.35
2018-11-05T05:37:49.542Z,10.30
2018-11-05T05:40:18.888Z,10.45
2018-11-05T05:42:48.319Z,10.39
2018-11-05T05:45:17.960Z,10.45
2018-11-05T05:47:47.413Z,10.47
2018-11-05T05:50:17.847Z,10.42
2018-11-05T05:52:48.587Z,10.53
2018-11-05T05:55:17.964Z,10.54
2018-11-05T05:57:47.317Z,10.53
2018-11-05T06:00:17.942Z,10.58
2018-11-05T06:02:47.406Z,10.53
2018-11-05T06:05:17.075Z,10.54
2018-11-05T06:07:46.533Z,10.63
2018-11-05T06:10:16.691Z,10.62
2018-11-05T06:12:46.292Z,10.70
2018-11-05T06:15:16.773Z,10.73
2018-11-05T06:17:46.230Z,10.80
2018-11-05T06:20:17.427Z,10.76
2018-11-05T06:22:47.847Z,10.81
2018-11-05T06:25:17.533Z,10.74
2018-11-05T06:27:47.132Z,10.73
2018-11-05T06:30:20.114Z,10.72
2018-11-05T06:32:50.527Z,10.80
2018-11-05T06:35:20.510Z,10.76
2018-11-05T06:37:49.940Z,10.75
2018-11-05T06:40:21.177Z,10.81
2018-11-05T06:42:50.882Z,10.80
2018-11-05T06:45:21.715Z,10.85
2018-11-05T06:47:51.461Z,10.88
2018-11-05T06:50:23.273Z,10.76
2018-11-05T06:52:52.799Z,10.86
2018-11-05T06:55:22.170Z,10.89
2018-11-05T06:57:51.915Z,10.83
2018-11-05T07:00:22.615Z,10.80
2018-11-05T07:02:53.247Z,10.79
2018-11-05T07:05:22.712Z,10.85
2018-11-05T07:07:52.156Z,10.88
2018-11-05T07:10:21.694Z,10.98
2018-11-05T07:12:51.357Z,10.92
2018-11-05T07:15:23.059Z,10.88
2018-11-05T07:17:52.666Z,10.87
2018-11-05T07:20:23.245Z,10.94
2018-11-05T07:22:53.199Z,10.92
2018-11-05T07:25:22.867Z,10.94
2018-11-05T07:27:52.937Z,11.06
2018-11-05T07:30:24.609Z,11.05
2018-11-05T07:32:56.132Z,11.02
2018-11-05T07:35:26.146Z,11.11
2018-11-05T07:37:55.808Z,11.06
2018-11-05T07:40:25.666Z,10.90
2018-11-05T07:42:55.394Z,10.88
2018-11-05T07:45:25.417Z,10.82
2018-11-05T07:47:55.308Z,10.84
2018-11-05T07:50:27.872Z,10.97
2018-11-05T07:52:57.565Z,10.88
2018-11-05T07:55:27.240Z,10.95
2018-11-05T07:57:58.104Z,10.93
2018-11-05T08:00:33.302Z,11.02
2018-11-05T08:03:03.544Z,11.02
2018-11-05T08:05:33.899Z,11.04
2018-11-05T08:08:03.570Z,11.13
2018-11-05T08:10:33.330Z,11.05
2018-11-05T08:13:03.426Z,11.04
2018-11-05T08:15:35.275Z,11.13
2018-11-05T08:18:05.005Z,11.01
2018-11-05T08:20:34.837Z,10.98
2018-11-05T08:23:04.789Z,11.01
2018-11-05T08:25:35.841Z,11.10
2018-11-05T08:28:06.051Z,11.11
2018-11-05T08:30:35.868Z,10.96
2018-11-05T08:33:05.556Z,11.11
2018-11-05T08:35:35.950Z,11.08
2018-11-05T08:38:05.328Z,11.08
2018-11-05T08:40:34.799Z,10.96
2018-11-05T08:43:04.334Z,10.99
2018-11-05T08:45:33.707Z,11.02
2018-11-05T08:48:03.068Z,11.07
2018-11-05T08:50:32.637Z,11.12
2018-11-05T08:53:02.103Z,11.07
2018-11-05T08:55:31.568Z,11.07
2018-11-05T08:58:02.152Z,11.10
2018-11-05T09:00:36.990Z,11.23
2018-11-05T09:03:06.669Z,11.10
2018-11-05T09:05:43.237Z,11.12
2018-11-05T09:08:16.500Z,11.25
2018-11-05T09:10:47.904Z,11.25
2018-11-05T09:13:19.026Z,11.38
2018-11-05T09:15:49.866Z,11.35
2018-11-05T09:18:20.936Z,11.43
2018-11-05T09:23:42.132Z,11.39
2018-11-05T09:26:11.539Z,11.39
2018-11-05T09:28:40.967Z,11.38
2018-11-05T09:31:10.635Z,11.45
2018-11-05T09:33:41.894Z,11.48
2018-11-05T09:36:11.555Z,11.38
2018-11-05T09:38:40.922Z,11.46
2018-11-05T09:41:10.585Z,11.55
2018-11-05T09:43:41.161Z,11.54
2018-11-05T09:46:11.091Z,11.55
2018-11-05T09:48:42.493Z,11.56
2018-11-05T09:53:57.272Z,11.70
2018-11-05T09:56:30.074Z,11.60
2018-11-05T09:59:04.174Z,11.66
2018-11-05T10:01:34.448Z,11.75
2018-11-05T10:04:03.928Z,11.77
2018-11-05T10:06:33.392Z,11.82
2018-11-05T10:09:10.302Z,11.89
2018-11-05T10:11:39.787Z,11.96
2018-11-05T10:14:09.622Z,11.85
2018-11-05T10:16:39.098Z,11.91
2018-11-05T10:19:08.825Z,11.85
2018-11-05T10:21:38.387Z,11.83
2018-11-05T10:24:07.918Z,11.93
2018-11-05T10:26:37.356Z,11.81
2018-11-05T10:29:06.877Z,11.88
2018-11-05T10:31:36.390Z,12.01
2018-11-05T10:34:06.163Z,11.93
2018-11-05T10:36:35.656Z,12.00
2018-11-05T10:39:08.540Z,11.84
2018-11-05T10:41:37.937Z,11.83
2018-11-05T10:44:07.423Z,11.84
2018-11-05T10:46:38.953Z,11.86
2018-11-05T10:49:08.430Z,11.73
2018-11-05T10:51:37.873Z,11.73
2018-11-05T10:54:07.665Z,11.68
2018-11-05T10:56:37.154Z,11.75
2018-11-05T10:59:06.972Z,11.85
2018-11-05T11:01:41.798Z,11.88
2018-11-05T11:04:16.688Z,11.81
2018-11-05T11:06:46.354Z,11.55
2018-11-05T11:09:15.843Z,11.66
2018-11-05T11:11:47.148Z,11.72
2018-11-05T11:14:16.606Z,11.78
2018-11-05T11:16:46.276Z,11.78
2018-11-05T11:19:15.882Z,11.72
2018-11-05T11:21:45.336Z,11.71
2018-11-05T11:24:14.934Z,11.75
2018-11-05T11:26:44.397Z,11.82
2018-11-05T11:29:14.091Z,11.71
2018-11-05T11:31:43.449Z,11.84
2018-11-05T11:34:13.162Z,11.82
2018-11-05T11:36:43.765Z,11.92
2018-11-05T11:39:13.320Z,11.92
2018-11-05T11:41:42.883Z,11.75
2018-11-05T11:44:12.520Z,11.73
2018-11-05T11:46:41.905Z,11.72
2018-11-05T11:49:11.455Z,11.69
2018-11-05T11:51:41.227Z,11.72
2018-11-05T11:54:10.637Z,11.80
2018-11-05T11:56:40.145Z,11.78
2018-11-05T11:59:09.583Z,11.81
2018-11-05T12:01:44.454Z,11.73
2018-11-05T12:04:14.081Z,11.83
2018-11-05T12:06:43.899Z,11.92
2018-11-05T12:09:13.422Z,11.92
2018-11-05T12:11:42.752Z,11.78
2018-11-05T12:14:12.167Z,11.89
2018-11-05T12:16:41.999Z,11.87
2018-11-05T12:19:11.377Z,11.95
2018-11-05T12:21:40.818Z,11.94
2018-11-05T12:24:10.282Z,11.90
2018-11-05T12:26:39.810Z,11.95
2018-11-05T12:29:09.142Z,11.96
2018-11-05T12:31:38.730Z,11.87
2018-11-05T12:34:08.233Z,11.96
2018-11-05T12:36:37.555Z,11.92
2018-11-05T12:39:11.293Z,11.91
2018-11-05T12:41:40.975Z,11.84
2018-11-05T12:44:11.271Z,11.83
2018-11-05T12:46:42.882Z,11.85
2018-11-05T12:49:12.810Z,11.88
2018-11-05T12:51:42.240Z,11.80
2018-11-05T12:54:12.816Z,11.82
2018-11-05T12:56:42.206Z,11.77
2018-11-05T12:59:11.616Z,11.73
2018-11-05T13:01:41.084Z,11.78
2018-11-05T13:04:10.505Z,11.76
2018-11-05T13:06:39.831Z,11.78
2018-11-05T13:09:10.162Z,11.85
2018-11-05T13:11:39.647Z,11.84
2018-11-05T13:14:09.181Z,11.77
2018-11-05T13:16:38.610Z,11.82
2018-11-05T13:19:08.934Z,11.74
2018-11-05T13:21:38.791Z,11.76
2018-11-05T13:24:08.228Z,11.74
2018-11-05T13:26:41.418Z,11.75
2018-11-05T13:29:10.943Z,11.79
2018-11-05T13:31:41.770Z,11.77
2018-11-05T13:34:14.923Z,11.69
2018-11-05T13:36:44.477Z,11.74
2018-11-05T13:39:13.755Z,11.79
2018-11-05T13:41:43.279Z,11.78
2018-11-05T13:44:12.643Z,11.72
2018-11-05T13:46:42.513Z,11.72
2018-11-05T13:49:12.117Z,11.68
2018-11-05T13:51:43.919Z,11.78
2018-11-05T13:54:13.563Z,11.84
2018-11-05T13:56:42.798Z,11.87
2018-11-05T13:59:12.151Z,11.71
2018-11-05T14:01:41.876Z,11.62
2018-11-05T14:04:11.466Z,11.70
2018-11-05T14:06:40.907Z,11.73
2018-11-05T14:09:10.501Z,11.67
2018-11-05T14:11:39.879Z,11.67
2018-11-05T14:14:09.323Z,11.72
2018-11-05T14:16:38.791Z,11.72
2018-11-05T14:19:08.189Z,11.73
2018-11-05T14:21:37.611Z,11.76
2018-11-05T14:24:07.306Z,11.75
2018-11-05T14:26:37.255Z,11.85
2018-11-05T14:29:07.296Z,11.79
2018-11-05T14:31:36.589Z,11.72
2018-11-05T14:34:06.324Z,11.73
2018-11-05T14:36:36.502Z,11.73
2018-11-05T14:39:10.970Z,11.72
2018-11-05T14:41:40.550Z,11.75
2018-11-05T14:44:10.959Z,11.71
2018-11-05T14:46:40.381Z,11.78
2018-11-05T14:49:10.439Z,11.69
2018-11-05T14:51:39.992Z,11.78
2018-11-05T14:54:09.388Z,11.82
2018-11-05T14:56:38.844Z,11.73
2018-11-05T14:59:08.308Z,11.80
2018-11-05T15:01:37.666Z,11.86
2018-11-05T15:04:07.069Z,11.91
2018-11-05T15:06:36.539Z,11.89
2018-11-05T15:09:09.839Z,11.85
2018-11-05T15:11:39.499Z,11.87
2018-11-05T15:14:09.871Z,11.87
2018-11-05T15:16:39.219Z,11.85
2018-11-05T15:19:09.055Z,11.84
2018-11-05T15:21:38.154Z,11.96
2018-11-05T15:24:08.128Z,11.82
2018-11-05T15:26:37.722Z,11.79
2018-11-05T15:29:07.029Z,11.81
2018-11-05T15:31:36.636Z,11.82
2018-11-05T15:34:06.232Z,11.81
2018-11-05T15:36:35.869Z,11.79
2018-11-05T15:39:08.842Z,11.75
2018-11-05T15:41:38.415Z,11.70
2018-11-05T15:44:08.661Z,11.68
2018-11-05T15:46:39.137Z,11.72
2018-11-05T15:49:08.631Z,11.72
2018-11-05T15:51:38.251Z,11.73
2018-11-05T15:54:07.759Z,11.71
2018-11-05T15:56:37.123Z,11.74
2018-11-05T15:59:06.642Z,11.77
2018-11-05T16:01:36.278Z,11.70
2018-11-05T16:04:06.372Z,11.72
2018-11-05T16:06:36.998Z,11.62
2018-11-05T16:09:08.824Z,11.75
2018-11-05T16:11:38.226Z,11.70
2018-11-05T16:14:08.044Z,11.69
2018-11-05T16:16:37.884Z,11.72
2018-11-05T16:19:07.664Z,11.78
2018-11-05T16:21:37.272Z,11.69
2018-11-05T16:24:06.959Z,11.68
2018-11-05T16:26:37.269Z,11.66
2018-11-05T16:29:07.327Z,11.71
2018-11-05T16:31:36.738Z,11.69
2018-11-05T16:34:06.432Z,11.67
2018-11-05T16:36:37.836Z,11.66
2018-11-05T16:39:11.761Z,11.67
2018-11-05T16:41:42.221Z,11.67
2018-11-05T16:44:12.134Z,11.67
2018-11-05T16:46:42.090Z,11.58
2018-11-05T16:49:11.850Z,11.57
2018-11-05T16:51:41.638Z,11.51
2018-11-05T16:54:11.226Z,11.58
2018-11-05T16:56:40.863Z,11.54
2018-11-05T16:59:11.548Z,11.49
2018-11-05T17:01:41.667Z,11.53
2018-11-05T17:04:10.829Z,11.53
2018-11-05T17:06:40.168Z,11.50
2018-11-05T17:09:10.380Z,11.55
2018-11-05T17:11:39.768Z,11.51
2018-11-05T17:14:10.335Z,11.59
2018-11-05T17:16:39.931Z,11.58
2018-11-05T17:19:09.411Z,11.52
2018-11-05T17:21:38.772Z,11.58
2018-11-05T17:24:08.378Z,11.53
2018-11-05T17:26:37.984Z,11.59
2018-11-05T17:29:07.656Z,11.56
2018-11-05T17:31:37.212Z,11.52
2018-11-05T17:34:06.590Z,11.51
2018-11-05T17:36:36.160Z,11.42
2018-11-05T17:39:09.299Z,11.37
2018-11-05T17:41:39.379Z,11.33
2018-11-05T17:44:10.135Z,11.21
2018-11-05T17:46:39.836Z,11.25
2018-11-05T17:49:11.683Z,11.23
2018-11-05T17:51:41.540Z,11.31
2018-11-05T17:54:11.139Z,11.32
2018-11-05T17:56:40.943Z,11.38
2018-11-05T17:59:11.051Z,11.26
2018-11-05T18:01:40.770Z,11.29
2018-11-05T18:04:10.464Z,11.33
2018-11-05T18:06:39.849Z,11.36
2018-11-05T18:09:12.848Z,11.23
2018-11-05T18:11:43.427Z,11.15
2018-11-05T18:17:04.467Z,11.17
2018-11-05T18:19:35.169Z,11.27
2018-11-05T18:22:05.013Z,11.25
2018-11-05T18:24:34.936Z,11.19
2018-11-05T18:27:04.543Z,11.24
2018-11-05T18:29:34.925Z,11.21
2018-11-05T18:32:04.899Z,11.22
2018-11-05T18:34:34.908Z,11.24
2018-11-05T18:37:04.345Z,11.24
2018-11-05T18:39:34.162Z,11.27
2018-11-05T18:42:04.100Z,11.33
2018-11-05T18:44:33.875Z,11.40
2018-11-05T18:47:03.809Z,11.44
2018-11-05T18:49:33.910Z,11.37
2018-11-05T18:52:03.930Z,11.42
2018-11-05T18:54:33.716Z,11.50
2018-11-05T18:57:03.236Z,11.53
2018-11-05T18:59:32.909Z,11.50
2018-11-05T19:02:04.730Z,11.57
2018-11-05T19:04:34.601Z,11.48
2018-11-05T19:07:04.463Z,11.56
2018-11-05T19:09:34.503Z,11.54
2018-11-05T19:12:04.012Z,11.51
2018-11-05T19:14:33.599Z,11.52
2018-11-05T19:17:03.551Z,11.58
2018-11-05T19:19:33.096Z,11.60
2018-11-05T19:22:02.759Z,11.55
2018-11-05T19:24:32.730Z,11.46
2018-11-05T19:27:02.325Z,11.53
2018-11-05T19:29:32.501Z,11.42
2018-11-05T19:32:02.475Z,11.37
2018-11-05T19:34:31.962Z,11.41
2018-11-05T19:37:01.691Z,11.33
2018-11-05T19:39:31.870Z,11.38
2018-11-05T19:42:01.580Z,11.34
2018-11-05T19:44:31.060Z,11.39
2018-11-05T19:47:00.743Z,11.37
2018-11-05T19:49:30.354Z,11.31
2018-11-05T19:51:59.848Z,11.28
2018-11-05T19:54:29.396Z,11.25
2018-11-05T19:56:58.792Z,11.33
2018-11-05T19:59:29.523Z,11.26
2018-11-05T20:01:59.076Z,11.30
2018-11-05T20:04:28.537Z,11.35
2018-11-05T20:06:58.098Z,11.32
2018-11-05T20:09:28.650Z,11.22
2018-11-05T20:11:58.587Z,11.32
2018-11-05T20:14:28.097Z,11.30
2018-11-05T20:16:58.035Z,11.31
2018-11-05T20:19:27.608Z,11.22
2018-11-05T20:21:57.211Z,11.23
2018-11-05T20:24:26.938Z,11.21
2018-11-05T20:26:56.491Z,11.26
2018-11-05T20:29:26.045Z,11.21
2018-11-05T20:31:55.667Z,11.23
2018-11-05T20:34:25.694Z,11.22
2018-11-05T20:36:55.438Z,11.30
2018-11-05T20:39:25.140Z,11.32
2018-11-05T20:41:55.926Z,11.20
2018-11-05T20:44:26.660Z,11.29
2018-11-05T20:49:34.855Z,11.16
2018-11-05T20:52:04.992Z,11.14
2018-11-05T20:54:34.995Z,11.12
2018-11-05T20:57:05.293Z,10.95
2018-11-05T20:59:35.155Z,11.01
2018-11-05T21:02:04.828Z,10.89
2018-11-05T21:04:34.623Z,10.90
2018-11-05T21:07:04.515Z,10.88
2018-11-05T21:09:34.082Z,10.96
2018-11-05T21:12:03.521Z,10.94
2018-11-05T21:14:33.060Z,10.98
2018-11-05T21:17:02.716Z,10.93
2018-11-05T21:19:32.180Z,10.91
2018-11-05T21:22:01.840Z,10.89
2018-11-05T21:24:31.295Z,10.98
2018-11-05T21:27:00.973Z,11.01
2018-11-05T21:29:30.414Z,10.90
2018-11-05T21:32:01.063Z,10.88
2018-11-05T21:34:30.540Z,10.89
2018-11-05T21:37:00.164Z,10.89
2018-11-05T21:39:29.797Z,10.86
2018-11-05T21:41:59.529Z,10.82
2018-11-05T21:44:29.224Z,10.72
2018-11-05T21:46:59.480Z,10.65
2018-11-05T21:49:29.370Z,10.74
2018-11-05T21:51:59.147Z,10.64
2018-11-05T21:54:28.869Z,10.68
2018-11-05T21:56:58.361Z,10.69
2018-11-05T21:59:27.938Z,10.68
2018-11-05T22:01:57.474Z,10.74
2018-11-05T22:04:26.997Z,10.76
2018-11-05T22:06:56.654Z,10.68
2018-11-05T22:09:26.229Z,10.65
2018-11-05T22:11:55.877Z,10.58
2018-11-05T22:14:25.434Z,10.62
2018-11-05T22:16:55.033Z,10.53
2018-11-05T22:19:24.732Z,10.57
2018-11-05T22:21:54.366Z,10.54
2018-11-05T22:24:23.897Z,10.41
2018-11-05T22:26:53.642Z,10.48
2018-11-05T22:29:23.466Z,10.40
2018-11-05T22:31:52.926Z,10.37
2018-11-05T22:34:22.600Z,10.39
2018-11-05T22:36:52.068Z,10.38
2018-11-05T22:39:21.612Z,10.37
2018-11-05T22:41:51.375Z,10.32
2018-11-05T22:44:20.789Z,10.27
2018-11-05T22:46:50.261Z,10.31
2018-11-05T22:49:19.779Z,10.33
2018-11-05T22:51:49.351Z,10.27
2018-11-05T22:54:18.816Z,10.20
2018-11-05T22:56:48.278Z,10.16
2018-11-05T22:59:17.829Z,10.20
2018-11-05T23:01:53.109Z,10.19
2018-11-05T23:04:22.627Z,10.09
2018-11-05T23:06:52.646Z,10.08
2018-11-05T23:09:22.759Z,10.10
2018-11-05T23:11:52.369Z,10.05
2018-11-05T23:14:21.762Z,10.11
2018-11-05T23:16:51.351Z,10.14
2018-11-05T23:19:20.856Z,10.07
2018-11-05T23:21:50.342Z,10.00
2018-11-05T23:24:19.841Z,10.01
2018-11-05T23:26:49.492Z,10.03
2018-11-05T23:29:19.061Z,10.03
2018-11-05T23:31:48.620Z,9.98
2018-11-05T23:34:18.002Z,9.90
2018-11-05T23:36:47.660Z,9.93
2018-11-05T23:39:17.466Z,9.89
2018-11-05T23:41:47.211Z,9.96
2018-11-05T23:44:16.738Z,9.95
2018-11-05T23:46:46.326Z,9.92
2018-11-05T23:49:15.902Z,9.93
2018-11-05T23:51:45.804Z,9.93
2018-11-05T23:54:16.246Z,9.87
2018-11-05T23:56:45.707Z,9.81
2018-11-05T23:59:15.167Z,9.78
